sensor_id;sensor_type;location;lat;lon;timestamp;temperature;humidity
23073;DHT22;67971;51.046;3.732;2023-05-07T00:02:24;18.90;99.90
23073;DHT22;67971;51.046;3.732;2023-05-07T00:04:50;18.90;99.90
23073;DHT22;67971;51.046;3.732;2023-05-07T00:07:17;18.90;99.90
23073;DHT22;67971;51.046;3.732;2023-05-07T00:09:43;18.90;99.90
23073;DHT22;67971;51.046;3.732;2023-05-07T00:12:09;18.90;99.90
23073;DHT22;67971;51.046;3.732;2023-05-07T00:14:35;18.90;99.90
23073;DHT22;67971;51.046;3.732;2023-05-07T00:17:01;18.80;99.90
23073;DHT22;67971;51.046;3.732;2023-05-07T00:19:26;18.70;99.90
23073;DHT22;67971;51.046;3.732;2023-05-07T00:21:52;18.80;99.90
23073;DHT22;67971;51.046;3.732;2023-05-07T00:24:19;18.90;99.90
23073;DHT22;67971;51.046;3.732;2023-05-07T00:26:45;19.00;99.90
23073;DHT22;67971;51.046;3.732;2023-05-07T00:29:11;18.90;99.90
23073;DHT22;67971;51.046;3.732;2023-05-07T00:31:36;19.00;99.90
23073;DHT22;67971;51.046;3.732;2023-05-07T00:34:02;19.00;99.90
23073;DHT22;67971;51.046;3.732;2023-05-07T00:36:28;19.00;99.90
23073;DHT22;67971;51.046;3.732;2023-05-07T00:38:56;19.00;99.90
23073;DHT22;67971;51.046;3.732;2023-05-07T00:41:22;19.00;99.90
23073;DHT22;67971;51.046;3.732;2023-05-07T00:43:48;19.10;99.90
23073;DHT22;67971;51.046;3.732;2023-05-07T00:46:13;19.00;99.90
23073;DHT22;67971;51.046;3.732;2023-05-07T00:48:41;18.80;99.90
23073;DHT22;67971;51.046;3.732;2023-05-07T00:51:07;18.80;99.90
23073;DHT22;67971;51.046;3.732;2023-05-07T00:53:32;18.90;99.90
23073;DHT22;67971;51.046;3.732;2023-05-07T00:55:58;18.90;99.90
23073;DHT22;67971;51.046;3.732;2023-05-07T00:58:24;18.90;99.90
23073;DHT22;67971;51.046;3.732;2023-05-07T01:00:50;19.00;99.90
23073;DHT22;67971;51.046;3.732;2023-05-07T01:03:16;19.10;99.90
23073;DHT22;67971;51.046;3.732;2023-05-07T01:05:42;19.10;99.90
23073;DHT22;67971;51.046;3.732;2023-05-07T01:08:08;19.00;99.90
23073;DHT22;67971;51.046;3.732;2023-05-07T01:10:36;18.80;99.90
23073;DHT22;67971;51.046;3.732;2023-05-07T01:13:02;18.70;99.90
23073;DHT22;67971;51.046;3.732;2023-05-07T01:15:28;18.80;99.90
23073;DHT22;67971;51.046;3.732;2023-05-07T01:17:54;18.70;99.90
23073;DHT22;67971;51.046;3.732;2023-05-07T01:20:22;18.80;99.90
23073;DHT22;67971;51.046;3.732;2023-05-07T01:22:49;18.80;99.90
23073;DHT22;67971;51.046;3.732;2023-05-07T01:25:15;18.90;99.90
23073;DHT22;67971;51.046;3.732;2023-05-07T01:27:42;18.90;99.90
23073;DHT22;67971;51.046;3.732;2023-05-07T01:30:07;18.90;99.90
23073;DHT22;67971;51.046;3.732;2023-05-07T01:32:41;18.90;99.90
23073;DHT22;67971;51.046;3.732;2023-05-07T01:35:11;18.90;99.90
23073;DHT22;67971;51.046;3.732;2023-05-07T01:37:38;18.90;99.90
23073;DHT22;67971;51.046;3.732;2023-05-07T01:40:04;18.80;99.90
23073;DHT22;67971;51.046;3.732;2023-05-07T01:42:30;18.70;99.90
23073;DHT22;67971;51.046;3.732;2023-05-07T01:44:56;18.60;99.90
23073;DHT22;67971;51.046;3.732;2023-05-07T01:47:23;18.70;99.90
23073;DHT22;67971;51.046;3.732;2023-05-07T01:49:50;18.70;99.90
23073;DHT22;67971;51.046;3.732;2023-05-07T01:52:16;18.70;99.90
23073;DHT22;67971;51.046;3.732;2023-05-07T01:54:41;18.60;99.90
23073;DHT22;67971;51.046;3.732;2023-05-07T01:57:08;18.60;99.90
23073;DHT22;67971;51.046;3.732;2023-05-07T01:59:34;18.60;99.90
23073;DHT22;67971;51.046;3.732;2023-05-07T02:01:59;18.70;99.90
23073;DHT22;67971;51.046;3.732;2023-05-07T02:04:26;18.60;99.90
23073;DHT22;67971;51.046;3.732;2023-05-07T02:06:51;18.60;99.90
23073;DHT22;67971;51.046;3.732;2023-05-07T02:09:18;18.60;99.90
23073;DHT22;67971;51.046;3.732;2023-05-07T02:11:44;18.60;99.90
23073;DHT22;67971;51.046;3.732;2023-05-07T02:14:10;18.50;99.90
23073;DHT22;67971;51.046;3.732;2023-05-07T02:16:35;18.50;99.90
23073;DHT22;67971;51.046;3.732;2023-05-07T02:19:01;18.60;99.90
23073;DHT22;67971;51.046;3.732;2023-05-07T02:21:27;18.60;99.90
23073;DHT22;67971;51.046;3.732;2023-05-07T02:23:53;18.50;99.90
23073;DHT22;67971;51.046;3.732;2023-05-07T02:26:19;18.50;99.90
23073;DHT22;67971;51.046;3.732;2023-05-07T02:28:45;18.30;99.90
23073;DHT22;67971;51.046;3.732;2023-05-07T02:31:11;18.30;99.90
23073;DHT22;67971;51.046;3.732;2023-05-07T02:33:36;18.20;99.90
23073;DHT22;67971;51.046;3.732;2023-05-07T02:36:12;18.20;99.90
23073;DHT22;67971;51.046;3.732;2023-05-07T02:38:38;18.20;99.90
23073;DHT22;67971;51.046;3.732;2023-05-07T02:41:04;18.20;99.90
23073;DHT22;67971;51.046;3.732;2023-05-07T02:43:30;18.10;99.90
23073;DHT22;67971;51.046;3.732;2023-05-07T02:46:06;17.90;99.90
23073;DHT22;67971;51.046;3.732;2023-05-07T02:48:32;17.80;99.90
23073;DHT22;67971;51.046;3.732;2023-05-07T02:50:59;17.80;99.90
23073;DHT22;67971;51.046;3.732;2023-05-07T02:53:25;17.80;99.90
23073;DHT22;67971;51.046;3.732;2023-05-07T02:55:56;17.80;99.90
23073;DHT22;67971;51.046;3.732;2023-05-07T02:58:22;17.80;99.90
23073;DHT22;67971;51.046;3.732;2023-05-07T03:00:48;17.90;99.90
23073;DHT22;67971;51.046;3.732;2023-05-07T03:03:14;18.00;99.90
23073;DHT22;67971;51.046;3.732;2023-05-07T03:05:40;18.10;99.90
23073;DHT22;67971;51.046;3.732;2023-05-07T03:08:06;18.10;99.90
23073;DHT22;67971;51.046;3.732;2023-05-07T03:10:32;18.10;99.90
23073;DHT22;67971;51.046;3.732;2023-05-07T03:12:58;18.10;99.90
23073;DHT22;67971;51.046;3.732;2023-05-07T03:15:23;18.20;99.90
23073;DHT22;67971;51.046;3.732;2023-05-07T03:17:49;18.20;99.90
23073;DHT22;67971;51.046;3.732;2023-05-07T03:20:15;18.10;99.90
23073;DHT22;67971;51.046;3.732;2023-05-07T03:22:41;18.10;99.90
23073;DHT22;67971;51.046;3.732;2023-05-07T03:25:08;18.20;99.90
23073;DHT22;67971;51.046;3.732;2023-05-07T03:27:34;18.10;99.90
23073;DHT22;67971;51.046;3.732;2023-05-07T03:29:59;18.20;99.90
23073;DHT22;67971;51.046;3.732;2023-05-07T03:32:25;18.20;99.90
23073;DHT22;67971;51.046;3.732;2023-05-07T03:34:51;18.20;99.90
23073;DHT22;67971;51.046;3.732;2023-05-07T03:37:17;18.20;99.90
23073;DHT22;67971;51.046;3.732;2023-05-07T03:39:43;18.20;99.90
23073;DHT22;67971;51.046;3.732;2023-05-07T03:42:08;18.10;99.90
23073;DHT22;67971;51.046;3.732;2023-05-07T03:44:34;18.20;99.90
23073;DHT22;67971;51.046;3.732;2023-05-07T03:47:02;18.10;99.90
23073;DHT22;67971;51.046;3.732;2023-05-07T03:49:27;18.10;99.90
23073;DHT22;67971;51.046;3.732;2023-05-07T03:51:53;18.10;99.90
23073;DHT22;67971;51.046;3.732;2023-05-07T03:54:18;18.20;99.90
23073;DHT22;67971;51.046;3.732;2023-05-07T03:56:44;18.20;99.90
23073;DHT22;67971;51.046;3.732;2023-05-07T03:59:10;18.10;99.90
23073;DHT22;67971;51.046;3.732;2023-05-07T04:01:36;18.10;99.90
23073;DHT22;67971;51.046;3.732;2023-05-07T04:04:01;18.10;99.90
23073;DHT22;67971;51.046;3.732;2023-05-07T04:06:28;18.20;99.90
23073;DHT22;67971;51.046;3.732;2023-05-07T04:08:54;18.20;99.90
23073;DHT22;67971;51.046;3.732;2023-05-07T04:11:19;18.20;99.90
23073;DHT22;67971;51.046;3.732;2023-05-07T04:13:45;18.20;99.90
23073;DHT22;67971;51.046;3.732;2023-05-07T04:16:11;18.20;99.90
23073;DHT22;67971;51.046;3.732;2023-05-07T04:18:37;18.20;99.90
23073;DHT22;67971;51.046;3.732;2023-05-07T04:21:03;18.20;99.90
23073;DHT22;67971;51.046;3.732;2023-05-07T04:23:28;18.30;99.90
23073;DHT22;67971;51.046;3.732;2023-05-07T04:25:54;18.30;99.90
23073;DHT22;67971;51.046;3.732;2023-05-07T04:28:20;18.30;99.90
23073;DHT22;67971;51.046;3.732;2023-05-07T04:30:46;18.30;99.90
23073;DHT22;67971;51.046;3.732;2023-05-07T04:33:11;18.30;99.90
23073;DHT22;67971;51.046;3.732;2023-05-07T04:35:39;18.30;99.90
23073;DHT22;67971;51.046;3.732;2023-05-07T04:38:04;18.30;99.90
23073;DHT22;67971;51.046;3.732;2023-05-07T04:40:30;18.30;99.90
23073;DHT22;67971;51.046;3.732;2023-05-07T04:42:56;18.30;99.90
23073;DHT22;67971;51.046;3.732;2023-05-07T04:45:22;18.30;99.90
23073;DHT22;67971;51.046;3.732;2023-05-07T04:47:47;18.40;99.90
23073;DHT22;67971;51.046;3.732;2023-05-07T04:50:13;18.30;99.90
23073;DHT22;67971;51.046;3.732;2023-05-07T04:52:39;18.30;99.90
23073;DHT22;67971;51.046;3.732;2023-05-07T04:55:04;18.20;99.90
23073;DHT22;67971;51.046;3.732;2023-05-07T04:57:30;18.10;99.90
23073;DHT22;67971;51.046;3.732;2023-05-07T04:59:56;18.10;99.90
23073;DHT22;67971;51.046;3.732;2023-05-07T05:02:22;18.10;99.90
23073;DHT22;67971;51.046;3.732;2023-05-07T05:04:48;18.20;99.90
23073;DHT22;67971;51.046;3.732;2023-05-07T05:07:13;18.40;99.90
23073;DHT22;67971;51.046;3.732;2023-05-07T05:09:39;18.40;99.90
23073;DHT22;67971;51.046;3.732;2023-05-07T05:12:05;18.30;99.90
23073;DHT22;67971;51.046;3.732;2023-05-07T05:14:32;18.30;99.90
23073;DHT22;67971;51.046;3.732;2023-05-07T05:16:58;18.10;99.90
23073;DHT22;67971;51.046;3.732;2023-05-07T05:19:23;18.10;99.90
23073;DHT22;67971;51.046;3.732;2023-05-07T05:21:49;18.10;99.90
23073;DHT22;67971;51.046;3.732;2023-05-07T05:24:15;18.00;99.90
23073;DHT22;67971;51.046;3.732;2023-05-07T05:26:40;18.00;99.90
23073;DHT22;67971;51.046;3.732;2023-05-07T05:29:06;18.10;99.90
23073;DHT22;67971;51.046;3.732;2023-05-07T05:31:33;18.10;99.90
23073;DHT22;67971;51.046;3.732;2023-05-07T05:33:59;18.10;99.90
23073;DHT22;67971;51.046;3.732;2023-05-07T05:36:24;18.00;99.90
23073;DHT22;67971;51.046;3.732;2023-05-07T05:38:51;18.00;99.90
23073;DHT22;67971;51.046;3.732;2023-05-07T05:41:16;17.90;99.90
23073;DHT22;67971;51.046;3.732;2023-05-07T05:43:42;17.80;99.90
23073;DHT22;67971;51.046;3.732;2023-05-07T05:46:08;17.70;99.90
23073;DHT22;67971;51.046;3.732;2023-05-07T05:48:36;17.70;99.90
23073;DHT22;67971;51.046;3.732;2023-05-07T05:51:02;17.80;99.90
23073;DHT22;67971;51.046;3.732;2023-05-07T05:53:27;17.70;99.90
23073;DHT22;67971;51.046;3.732;2023-05-07T05:55:53;17.40;99.90
23073;DHT22;67971;51.046;3.732;2023-05-07T05:58:19;17.40;99.90
23073;DHT22;67971;51.046;3.732;2023-05-07T06:00:45;17.40;99.90
23073;DHT22;67971;51.046;3.732;2023-05-07T06:03:11;17.50;99.90
23073;DHT22;67971;51.046;3.732;2023-05-07T06:05:36;17.40;99.90
23073;DHT22;67971;51.046;3.732;2023-05-07T06:08:02;17.50;99.90
23073;DHT22;67971;51.046;3.732;2023-05-07T06:10:28;17.70;99.90
23073;DHT22;67971;51.046;3.732;2023-05-07T06:12:55;17.80;99.90
23073;DHT22;67971;51.046;3.732;2023-05-07T06:15:20;17.80;99.90
23073;DHT22;67971;51.046;3.732;2023-05-07T06:17:46;17.80;99.90
23073;DHT22;67971;51.046;3.732;2023-05-07T06:20:12;17.70;99.90
23073;DHT22;67971;51.046;3.732;2023-05-07T06:22:37;17.70;99.90
23073;DHT22;67971;51.046;3.732;2023-05-07T06:25:03;17.70;99.90
23073;DHT22;67971;51.046;3.732;2023-05-07T06:27:29;17.60;99.90
23073;DHT22;67971;51.046;3.732;2023-05-07T06:29:55;17.50;99.90
23073;DHT22;67971;51.046;3.732;2023-05-07T06:32:20;17.20;99.90
23073;DHT22;67971;51.046;3.732;2023-05-07T06:34:46;17.10;99.90
23073;DHT22;67971;51.046;3.732;2023-05-07T06:37:12;17.20;99.90
23073;DHT22;67971;51.046;3.732;2023-05-07T06:39:37;17.20;99.90
23073;DHT22;67971;51.046;3.732;2023-05-07T06:42:03;17.30;99.90
23073;DHT22;67971;51.046;3.732;2023-05-07T06:44:30;17.30;99.90
23073;DHT22;67971;51.046;3.732;2023-05-07T06:46:56;17.30;99.90
23073;DHT22;67971;51.046;3.732;2023-05-07T06:49:22;17.20;99.90
23073;DHT22;67971;51.046;3.732;2023-05-07T06:51:47;17.30;99.90
23073;DHT22;67971;51.046;3.732;2023-05-07T06:54:13;17.20;99.90
23073;DHT22;67971;51.046;3.732;2023-05-07T06:56:39;17.20;99.90
23073;DHT22;67971;51.046;3.732;2023-05-07T06:59:04;17.30;99.90
23073;DHT22;67971;51.046;3.732;2023-05-07T07:01:30;17.30;99.90
23073;DHT22;67971;51.046;3.732;2023-05-07T07:03:56;17.30;99.90
23073;DHT22;67971;51.046;3.732;2023-05-07T07:06:21;17.20;99.90
23073;DHT22;67971;51.046;3.732;2023-05-07T07:08:47;17.30;99.90
23073;DHT22;67971;51.046;3.732;2023-05-07T07:11:12;17.40;99.90
23073;DHT22;67971;51.046;3.732;2023-05-07T07:13:38;17.40;99.90
23073;DHT22;67971;51.046;3.732;2023-05-07T07:16:05;17.50;99.90
23073;DHT22;67971;51.046;3.732;2023-05-07T07:18:31;17.60;99.90
23073;DHT22;67971;51.046;3.732;2023-05-07T07:20:57;17.60;99.90
23073;DHT22;67971;51.046;3.732;2023-05-07T07:23:23;17.70;99.90
23073;DHT22;67971;51.046;3.732;2023-05-07T07:25:48;17.80;99.90
23073;DHT22;67971;51.046;3.732;2023-05-07T07:28:14;17.90;99.90
23073;DHT22;67971;51.046;3.732;2023-05-07T07:30:39;17.90;99.90
23073;DHT22;67971;51.046;3.732;2023-05-07T07:33:05;17.90;99.90
23073;DHT22;67971;51.046;3.732;2023-05-07T07:35:32;17.90;99.90
23073;DHT22;67971;51.046;3.732;2023-05-07T07:37:57;17.90;99.90
23073;DHT22;67971;51.046;3.732;2023-05-07T07:40:23;17.90;99.90
23073;DHT22;67971;51.046;3.732;2023-05-07T07:42:50;17.80;99.90
23073;DHT22;67971;51.046;3.732;2023-05-07T07:45:16;17.80;99.90
23073;DHT22;67971;51.046;3.732;2023-05-07T07:47:42;18.00;99.90
23073;DHT22;67971;51.046;3.732;2023-05-07T07:50:08;17.90;99.90
23073;DHT22;67971;51.046;3.732;2023-05-07T07:52:34;17.90;99.90
23073;DHT22;67971;51.046;3.732;2023-05-07T07:55:00;17.80;99.90
23073;DHT22;67971;51.046;3.732;2023-05-07T07:57:25;17.70;99.90
23073;DHT22;67971;51.046;3.732;2023-05-07T07:59:51;17.60;99.90
23073;DHT22;67971;51.046;3.732;2023-05-07T08:02:17;17.60;99.90
23073;DHT22;67971;51.046;3.732;2023-05-07T08:04:43;17.70;99.90
23073;DHT22;67971;51.046;3.732;2023-05-07T08:07:11;17.70;99.90
23073;DHT22;67971;51.046;3.732;2023-05-07T08:09:40;17.70;99.90
23073;DHT22;67971;51.046;3.732;2023-05-07T08:12:06;17.60;99.90
23073;DHT22;67971;51.046;3.732;2023-05-07T08:14:33;17.60;99.90
23073;DHT22;67971;51.046;3.732;2023-05-07T08:16:58;17.50;99.90
23073;DHT22;67971;51.046;3.732;2023-05-07T08:19:24;17.50;99.90
23073;DHT22;67971;51.046;3.732;2023-05-07T08:21:50;17.70;99.90
23073;DHT22;67971;51.046;3.732;2023-05-07T08:24:16;17.90;99.90
23073;DHT22;67971;51.046;3.732;2023-05-07T08:26:43;17.90;99.90
23073;DHT22;67971;51.046;3.732;2023-05-07T08:29:09;18.00;99.90
23073;DHT22;67971;51.046;3.732;2023-05-07T08:31:35;18.10;99.90
23073;DHT22;67971;51.046;3.732;2023-05-07T08:34:00;18.00;99.90
23073;DHT22;67971;51.046;3.732;2023-05-07T08:36:26;17.90;99.90
23073;DHT22;67971;51.046;3.732;2023-05-07T08:38:52;17.80;99.90
23073;DHT22;67971;51.046;3.732;2023-05-07T08:41:18;17.90;99.90
23073;DHT22;67971;51.046;3.732;2023-05-07T08:43:50;18.10;99.90
23073;DHT22;67971;51.046;3.732;2023-05-07T08:46:22;18.20;99.90
23073;DHT22;67971;51.046;3.732;2023-05-07T08:48:51;18.20;99.90
23073;DHT22;67971;51.046;3.732;2023-05-07T08:51:21;18.30;99.90
23073;DHT22;67971;51.046;3.732;2023-05-07T08:53:48;18.50;99.90
23073;DHT22;67971;51.046;3.732;2023-05-07T08:56:15;18.60;99.90
23073;DHT22;67971;51.046;3.732;2023-05-07T08:58:42;18.70;99.90
23073;DHT22;67971;51.046;3.732;2023-05-07T09:01:10;18.70;99.90
23073;DHT22;67971;51.046;3.732;2023-05-07T09:03:38;18.70;99.90
23073;DHT22;67971;51.046;3.732;2023-05-07T09:06:04;18.70;99.90
23073;DHT22;67971;51.046;3.732;2023-05-07T09:08:32;18.70;99.90
23073;DHT22;67971;51.046;3.732;2023-05-07T09:10:58;18.70;99.90
23073;DHT22;67971;51.046;3.732;2023-05-07T09:13:24;18.70;99.90
23073;DHT22;67971;51.046;3.732;2023-05-07T09:15:50;18.70;99.90
23073;DHT22;67971;51.046;3.732;2023-05-07T09:18:15;18.70;99.90
23073;DHT22;67971;51.046;3.732;2023-05-07T09:20:41;18.70;99.90
23073;DHT22;67971;51.046;3.732;2023-05-07T09:23:07;18.70;99.90
23073;DHT22;67971;51.046;3.732;2023-05-07T09:25:35;18.70;99.90
23073;DHT22;67971;51.046;3.732;2023-05-07T09:28:02;18.80;99.90
23073;DHT22;67971;51.046;3.732;2023-05-07T09:30:31;18.90;99.90
23073;DHT22;67971;51.046;3.732;2023-05-07T09:33:03;19.10;99.90
23073;DHT22;67971;51.046;3.732;2023-05-07T09:35:30;19.30;99.90
23073;DHT22;67971;51.046;3.732;2023-05-07T09:38:00;19.30;99.90
23073;DHT22;67971;51.046;3.732;2023-05-07T09:40:28;19.20;99.90
23073;DHT22;67971;51.046;3.732;2023-05-07T09:42:55;19.30;99.90
23073;DHT22;67971;51.046;3.732;2023-05-07T09:45:27;19.30;99.90
23073;DHT22;67971;51.046;3.732;2023-05-07T09:47:55;19.10;99.90
23073;DHT22;67971;51.046;3.732;2023-05-07T09:50:29;19.00;99.90
23073;DHT22;67971;51.046;3.732;2023-05-07T09:52:56;18.90;99.90
23073;DHT22;67971;51.046;3.732;2023-05-07T09:55:22;19.10;99.90
23073;DHT22;67971;51.046;3.732;2023-05-07T09:57:52;19.10;99.90
23073;DHT22;67971;51.046;3.732;2023-05-07T10:00:19;19.10;99.90
23073;DHT22;67971;51.046;3.732;2023-05-07T10:02:51;19.20;99.90
23073;DHT22;67971;51.046;3.732;2023-05-07T10:05:20;19.40;99.90
23073;DHT22;67971;51.046;3.732;2023-05-07T10:07:47;19.50;99.90
23073;DHT22;67971;51.046;3.732;2023-05-07T10:10:14;19.50;99.90
23073;DHT22;67971;51.046;3.732;2023-05-07T10:12:41;19.40;99.90
23073;DHT22;67971;51.046;3.732;2023-05-07T10:15:11;19.60;99.90
23073;DHT22;67971;51.046;3.732;2023-05-07T10:17:38;19.80;99.90
23073;DHT22;67971;51.046;3.732;2023-05-07T10:20:05;19.90;99.90
23073;DHT22;67971;51.046;3.732;2023-05-07T10:22:43;20.20;99.90
23073;DHT22;67971;51.046;3.732;2023-05-07T10:25:16;20.50;99.90
23073;DHT22;67971;51.046;3.732;2023-05-07T10:27:43;20.40;99.90
23073;DHT22;67971;51.046;3.732;2023-05-07T10:32:57;20.50;99.90
23073;DHT22;67971;51.046;3.732;2023-05-07T10:35:32;20.60;99.90
23073;DHT22;67971;51.046;3.732;2023-05-07T10:38:02;20.70;99.90
23073;DHT22;67971;51.046;3.732;2023-05-07T10:40:28;20.70;99.90
23073;DHT22;67971;51.046;3.732;2023-05-07T10:42:58;20.90;99.90
23073;DHT22;67971;51.046;3.732;2023-05-07T10:45:25;20.90;99.90
23073;DHT22;67971;51.046;3.732;2023-05-07T10:48:12;20.90;99.90
23073;DHT22;67971;51.046;3.732;2023-05-07T10:50:40;20.80;99.90
23073;DHT22;67971;51.046;3.732;2023-05-07T10:55:49;20.80;99.90
23073;DHT22;67971;51.046;3.732;2023-05-07T11:00:48;20.50;99.90
23073;DHT22;67971;51.046;3.732;2023-05-07T11:03:14;20.50;99.90
23073;DHT22;67971;51.046;3.732;2023-05-07T11:05:41;20.50;99.90
23073;DHT22;67971;51.046;3.732;2023-05-07T11:08:08;20.60;99.90
23073;DHT22;67971;51.046;3.732;2023-05-07T11:10:53;20.60;99.90
23073;DHT22;67971;51.046;3.732;2023-05-07T11:13:48;20.80;99.90
23073;DHT22;67971;51.046;3.732;2023-05-07T11:16:26;20.80;99.90
23073;DHT22;67971;51.046;3.732;2023-05-07T11:18:56;20.80;99.90
23073;DHT22;67971;51.046;3.732;2023-05-07T11:21:39;20.70;99.90
23073;DHT22;67971;51.046;3.732;2023-05-07T11:24:09;20.60;99.90
23073;DHT22;67971;51.046;3.732;2023-05-07T11:26:46;20.50;99.90
23073;DHT22;67971;51.046;3.732;2023-05-07T11:29:22;20.70;99.90
23073;DHT22;67971;51.046;3.732;2023-05-07T11:31:52;20.90;99.90
23073;DHT22;67971;51.046;3.732;2023-05-07T11:34:25;20.90;99.90
23073;DHT22;67971;51.046;3.732;2023-05-07T11:36:52;20.80;99.90
23073;DHT22;67971;51.046;3.732;2023-05-07T11:39:44;20.80;99.90
23073;DHT22;67971;51.046;3.732;2023-05-07T11:44:54;21.00;99.90
23073;DHT22;67971;51.046;3.732;2023-05-07T11:47:20;21.10;99.90
23073;DHT22;67971;51.046;3.732;2023-05-07T11:49:51;21.20;99.90
23073;DHT22;67971;51.046;3.732;2023-05-07T11:52:18;21.50;99.90
23073;DHT22;67971;51.046;3.732;2023-05-07T11:54:54;21.70;99.90
23073;DHT22;67971;51.046;3.732;2023-05-07T11:57:21;22.00;99.90
23073;DHT22;67971;51.046;3.732;2023-05-07T11:59:47;22.00;99.90
23073;DHT22;67971;51.046;3.732;2023-05-07T12:02:14;22.00;99.90
23073;DHT22;67971;51.046;3.732;2023-05-07T12:04:40;21.90;99.90
23073;DHT22;67971;51.046;3.732;2023-05-07T12:07:11;21.80;99.90
23073;DHT22;67971;51.046;3.732;2023-05-07T12:09:38;21.60;99.90
23073;DHT22;67971;51.046;3.732;2023-05-07T12:12:04;21.60;99.90
23073;DHT22;67971;51.046;3.732;2023-05-07T12:14:30;21.60;99.90
23073;DHT22;67971;51.046;3.732;2023-05-07T12:16:56;21.60;99.90
23073;DHT22;67971;51.046;3.732;2023-05-07T12:19:22;21.80;99.90
23073;DHT22;67971;51.046;3.732;2023-05-07T12:21:48;22.10;99.90
23073;DHT22;67971;51.046;3.732;2023-05-07T12:24:16;22.40;99.90
23073;DHT22;67971;51.046;3.732;2023-05-07T12:26:43;22.50;99.90
23073;DHT22;67971;51.046;3.732;2023-05-07T12:29:09;22.60;99.90
23073;DHT22;67971;51.046;3.732;2023-05-07T12:31:34;22.20;99.90
23073;DHT22;67971;51.046;3.732;2023-05-07T12:34:00;21.90;99.90
23073;DHT22;67971;51.046;3.732;2023-05-07T12:36:26;21.70;99.90
23073;DHT22;67971;51.046;3.732;2023-05-07T12:38:54;21.70;99.90
23073;DHT22;67971;51.046;3.732;2023-05-07T12:41:20;21.70;99.90
23073;DHT22;67971;51.046;3.732;2023-05-07T12:43:56;21.70;99.90
23073;DHT22;67971;51.046;3.732;2023-05-07T12:46:23;21.70;99.90
23073;DHT22;67971;51.046;3.732;2023-05-07T12:48:49;21.60;99.90
23073;DHT22;67971;51.046;3.732;2023-05-07T12:51:15;22.00;99.90
23073;DHT22;67971;51.046;3.732;2023-05-07T12:53:42;22.50;99.90
23073;DHT22;67971;51.046;3.732;2023-05-07T12:56:08;23.00;99.90
23073;DHT22;67971;51.046;3.732;2023-05-07T12:58:35;23.40;99.90
23073;DHT22;67971;51.046;3.732;2023-05-07T13:01:06;23.50;99.90
23073;DHT22;67971;51.046;3.732;2023-05-07T13:03:36;23.70;99.90
23073;DHT22;67971;51.046;3.732;2023-05-07T13:06:04;23.80;99.90
23073;DHT22;67971;51.046;3.732;2023-05-07T13:08:36;23.60;99.90
23073;DHT22;67971;51.046;3.732;2023-05-07T13:11:04;23.40;99.90
23073;DHT22;67971;51.046;3.732;2023-05-07T13:13:30;23.10;99.90
23073;DHT22;67971;51.046;3.732;2023-05-07T13:15:56;22.90;99.90
23073;DHT22;67971;51.046;3.732;2023-05-07T13:18:24;22.70;99.90
23073;DHT22;67971;51.046;3.732;2023-05-07T13:20:50;22.80;99.90
23073;DHT22;67971;51.046;3.732;2023-05-07T13:23:15;23.10;99.90
23073;DHT22;67971;51.046;3.732;2023-05-07T13:25:41;23.50;99.90
23073;DHT22;67971;51.046;3.732;2023-05-07T13:28:07;23.70;99.90
23073;DHT22;67971;51.046;3.732;2023-05-07T13:30:32;23.60;99.90
23073;DHT22;67971;51.046;3.732;2023-05-07T13:32:58;23.40;99.90
23073;DHT22;67971;51.046;3.732;2023-05-07T13:35:24;23.30;99.90
23073;DHT22;67971;51.046;3.732;2023-05-07T13:37:50;23.40;99.90
23073;DHT22;67971;51.046;3.732;2023-05-07T13:40:17;23.50;99.90
23073;DHT22;67971;51.046;3.732;2023-05-07T13:42:44;23.90;99.90
23073;DHT22;67971;51.046;3.732;2023-05-07T13:45:10;24.50;99.90
23073;DHT22;67971;51.046;3.732;2023-05-07T13:47:36;25.50;99.90
23073;DHT22;67971;51.046;3.732;2023-05-07T13:50:01;26.20;99.90
23073;DHT22;67971;51.046;3.732;2023-05-07T13:52:27;26.00;99.90
23073;DHT22;67971;51.046;3.732;2023-05-07T13:54:53;25.30;99.90
23073;DHT22;67971;51.046;3.732;2023-05-07T13:57:18;24.70;99.90
23073;DHT22;67971;51.046;3.732;2023-05-07T13:59:44;24.30;99.90
23073;DHT22;67971;51.046;3.732;2023-05-07T14:02:10;23.80;99.90
23073;DHT22;67971;51.046;3.732;2023-05-07T14:04:36;23.40;99.90
23073;DHT22;67971;51.046;3.732;2023-05-07T14:07:03;23.30;99.90
23073;DHT22;67971;51.046;3.732;2023-05-07T14:09:28;23.00;99.90
23073;DHT22;67971;51.046;3.732;2023-05-07T14:11:54;22.70;99.90
23073;DHT22;67971;51.046;3.732;2023-05-07T14:14:20;22.50;99.90
23073;DHT22;67971;51.046;3.732;2023-05-07T14:16:45;22.30;99.90
23073;DHT22;67971;51.046;3.732;2023-05-07T14:19:14;22.30;99.90
23073;DHT22;67971;51.046;3.732;2023-05-07T14:21:40;22.30;99.90
23073;DHT22;67971;51.046;3.732;2023-05-07T14:24:06;22.20;99.90
23073;DHT22;67971;51.046;3.732;2023-05-07T14:26:33;22.10;99.90
23073;DHT22;67971;51.046;3.732;2023-05-07T14:28:59;22.10;99.90
23073;DHT22;67971;51.046;3.732;2023-05-07T14:31:25;21.80;99.90
23073;DHT22;67971;51.046;3.732;2023-05-07T14:33:50;21.70;99.90
23073;DHT22;67971;51.046;3.732;2023-05-07T14:36:18;21.70;99.90
23073;DHT22;67971;51.046;3.732;2023-05-07T14:38:46;21.80;99.90
23073;DHT22;67971;51.046;3.732;2023-05-07T14:41:11;21.60;99.90
23073;DHT22;67971;51.046;3.732;2023-05-07T14:43:37;21.50;99.90
23073;DHT22;67971;51.046;3.732;2023-05-07T14:46:03;21.30;99.90
23073;DHT22;67971;51.046;3.732;2023-05-07T14:48:29;21.20;99.90
23073;DHT22;67971;51.046;3.732;2023-05-07T14:50:54;21.20;99.90
23073;DHT22;67971;51.046;3.732;2023-05-07T14:53:20;21.30;99.90
23073;DHT22;67971;51.046;3.732;2023-05-07T14:55:48;21.10;99.90
23073;DHT22;67971;51.046;3.732;2023-05-07T14:58:13;21.20;99.90
23073;DHT22;67971;51.046;3.732;2023-05-07T15:00:39;21.00;99.90
23073;DHT22;67971;51.046;3.732;2023-05-07T15:03:07;21.10;99.90
23073;DHT22;67971;51.046;3.732;2023-05-07T15:05:33;21.00;99.90
23073;DHT22;67971;51.046;3.732;2023-05-07T15:07:59;20.90;99.90
23073;DHT22;67971;51.046;3.732;2023-05-07T15:10:25;20.90;99.90
23073;DHT22;67971;51.046;3.732;2023-05-07T15:12:51;21.00;99.90
23073;DHT22;67971;51.046;3.732;2023-05-07T15:15:17;21.20;99.90
23073;DHT22;67971;51.046;3.732;2023-05-07T15:17:42;21.30;99.90
23073;DHT22;67971;51.046;3.732;2023-05-07T15:20:08;21.30;99.90
23073;DHT22;67971;51.046;3.732;2023-05-07T15:22:35;21.30;99.90
23073;DHT22;67971;51.046;3.732;2023-05-07T15:25:01;21.40;99.90
23073;DHT22;67971;51.046;3.732;2023-05-07T15:27:27;21.40;99.90
23073;DHT22;67971;51.046;3.732;2023-05-07T15:29:53;21.40;99.90
23073;DHT22;67971;51.046;3.732;2023-05-07T15:32:18;21.40;99.90
23073;DHT22;67971;51.046;3.732;2023-05-07T15:34:44;21.50;99.90
23073;DHT22;67971;51.046;3.732;2023-05-07T15:37:10;21.60;99.90
23073;DHT22;67971;51.046;3.732;2023-05-07T15:39:36;21.50;99.90